createdAt,value
2018-07-02T00:01:05.601Z,1.20
2018-07-02T00:03:34.192Z,1.10
2018-07-02T00:06:13.818Z,1.43
2018-07-02T00:08:42.232Z,1.30
2018-07-02T00:11:10.645Z,1.33
2018-07-02T00:13:39.057Z,1.20
2018-07-02T00:16:07.916Z,1.60
2018-07-02T00:18:36.209Z,1.20
2018-07-02T00:21:04.617Z,1.53
2018-07-02T00:23:32.973Z,1.00
2018-07-02T00:26:01.440Z,1.10
2018-07-02T00:28:29.742Z,1.17
2018-07-02T00:30:58.080Z,1.40
2018-07-02T00:33:26.400Z,1.30
2018-07-02T00:35:54.789Z,1.30
2018-07-02T00:38:23.118Z,1.10
2018-07-02T00:40:51.628Z,1.37
2018-07-02T00:43:20.384Z,1.27
2018-07-02T00:45:48.736Z,1.10
2018-07-02T00:48:17.357Z,1.30
2018-07-02T00:50:45.986Z,1.10
2018-07-02T00:53:14.450Z,1.27
2018-07-02T00:55:44.243Z,1.03
2018-07-02T00:58:13.168Z,1.20
2018-07-02T01:00:41.452Z,1.03
2018-07-02T01:03:09.804Z,1.30
2018-07-02T01:05:38.188Z,1.33
2018-07-02T01:08:06.701Z,1.17
2018-07-02T01:10:35.084Z,1.03
2018-07-02T01:13:03.451Z,1.50
2018-07-02T01:15:31.728Z,1.20
2018-07-02T01:18:00.043Z,1.20
2018-07-02T01:20:28.349Z,1.10
2018-07-02T01:22:56.817Z,1.30
2018-07-02T01:25:25.179Z,1.30
2018-07-02T01:27:53.597Z,1.17
2018-07-02T01:30:22.041Z,1.10
2018-07-02T01:32:50.422Z,1.10
2018-07-02T01:35:18.817Z,1.17
2018-07-02T01:37:47.128Z,1.20
2018-07-02T01:40:15.408Z,1.23
2018-07-02T01:42:43.803Z,1.30
2018-07-02T01:45:12.635Z,1.10
2018-07-02T01:47:40.889Z,1.07
2018-07-02T01:50:10.168Z,1.20
2018-07-02T01:52:38.483Z,1.10
2018-07-02T01:55:06.884Z,1.10
2018-07-02T01:57:35.250Z,1.10
2018-07-02T02:00:03.596Z,1.20
2018-07-02T02:02:31.702Z,1.20
2018-07-02T02:05:00.057Z,1.10
2018-07-02T02:07:28.364Z,1.27
2018-07-02T02:09:56.648Z,1.10
2018-07-02T02:12:24.965Z,1.00
2018-07-02T02:14:53.424Z,1.07
2018-07-02T02:17:21.771Z,1.13
2018-07-02T02:19:50.117Z,1.27
2018-07-02T02:22:18.396Z,1.10
2018-07-02T02:24:46.763Z,1.10
2018-07-02T02:27:15.082Z,1.07
2018-07-02T02:29:43.541Z,1.30
2018-07-02T02:32:11.845Z,1.40
2018-07-02T02:34:40.097Z,1.20
2018-07-02T02:37:08.445Z,1.47
2018-07-02T02:39:37.483Z,1.23
2018-07-02T02:42:06.723Z,1.07
2018-07-02T02:44:35.066Z,1.27
2018-07-02T02:47:03.580Z,1.13
2018-07-02T02:49:31.918Z,1.20
2018-07-02T02:52:00.242Z,1.17
2018-07-02T02:54:30.539Z,1.00
2018-07-02T02:56:58.881Z,1.10
2018-07-02T02:59:27.209Z,1.00
2018-07-02T03:01:55.553Z,1.10
2018-07-02T03:04:23.841Z,1.30
2018-07-02T03:06:52.261Z,1.20
2018-07-02T03:09:20.543Z,1.20
2018-07-02T03:11:48.877Z,1.23
2018-07-02T03:14:17.239Z,1.30
2018-07-02T03:16:45.584Z,1.20
2018-07-02T03:19:13.936Z,1.00
2018-07-02T03:21:42.214Z,1.13
2018-07-02T03:24:10.333Z,1.17
2018-07-02T03:26:38.613Z,1.40
2018-07-02T03:29:06.973Z,1.20
2018-07-02T03:31:35.312Z,1.13
2018-07-02T03:34:03.746Z,1.20
2018-07-02T03:36:32.021Z,1.20
2018-07-02T03:39:00.281Z,1.00
2018-07-02T03:41:28.542Z,1.10
2018-07-02T03:43:56.800Z,1.10
2018-07-02T03:46:25.156Z,1.07
2018-07-02T03:48:53.444Z,1.30
2018-07-02T03:51:21.888Z,1.33
2018-07-02T03:53:50.225Z,1.13
2018-07-02T03:56:18.580Z,1.20
2018-07-02T03:58:46.857Z,0.90
2018-07-02T04:01:15.204Z,0.97
2018-07-02T04:03:43.437Z,1.00
2018-07-02T04:06:11.862Z,1.40
2018-07-02T04:08:40.417Z,1.20
2018-07-02T04:11:08.747Z,1.00
2018-07-02T04:13:37.028Z,1.13
2018-07-02T04:16:05.561Z,1.23
2018-07-02T04:18:34.754Z,1.27
2018-07-02T04:21:03.082Z,1.13
2018-07-02T04:23:31.520Z,1.27
2018-07-02T04:26:00.831Z,1.20
2018-07-02T04:28:29.104Z,1.30
2018-07-02T04:30:57.384Z,1.70
2018-07-02T04:33:25.890Z,1.37
2018-07-02T04:35:55.752Z,1.20
2018-07-02T04:38:24.100Z,1.10
2018-07-02T04:40:52.422Z,1.33
2018-07-02T04:43:20.730Z,1.20
2018-07-02T04:45:49.030Z,1.30
2018-07-02T04:48:18.305Z,1.13
2018-07-02T04:50:46.650Z,1.20
2018-07-02T04:53:14.889Z,1.10
2018-07-02T04:55:44.173Z,1.20
2018-07-02T04:58:13.237Z,1.20
2018-07-02T05:00:41.534Z,1.33
2018-07-02T05:03:09.885Z,1.20
2018-07-02T05:05:38.207Z,1.17
2018-07-02T05:08:06.514Z,1.20
2018-07-02T05:10:34.849Z,1.30
2018-07-02T05:13:03.134Z,1.50
2018-07-02T05:15:31.460Z,1.30
2018-07-02T05:17:59.865Z,1.10
2018-07-02T05:20:28.196Z,1.27
2018-07-02T05:22:56.545Z,1.20
2018-07-02T05:25:24.856Z,1.37
2018-07-02T05:27:53.825Z,1.00
2018-07-02T05:30:22.172Z,1.60
2018-07-02T05:32:50.476Z,1.10
2018-07-02T05:35:18.836Z,1.30
2018-07-02T05:37:47.280Z,1.30
2018-07-02T05:40:16.632Z,1.27
2018-07-02T05:42:44.974Z,1.57
2018-07-02T05:45:13.278Z,1.63
2018-07-02T05:47:41.629Z,1.40
2018-07-02T05:50:10.586Z,1.37
2018-07-02T05:52:39.012Z,1.30
2018-07-02T05:55:07.290Z,1.50
2018-07-02T05:57:35.881Z,1.50
2018-07-02T06:00:04.594Z,1.57
2018-07-02T06:02:34.226Z,1.10
2018-07-02T06:05:02.711Z,1.30
2018-07-02T06:07:31.040Z,1.50
2018-07-02T06:10:00.362Z,1.50
2018-07-02T06:12:28.641Z,1.40
2018-07-02T06:14:56.925Z,1.30
2018-07-02T06:17:25.465Z,1.20
2018-07-02T06:19:53.807Z,1.40
2018-07-02T06:22:22.103Z,1.33
2018-07-02T06:24:50.480Z,1.20
2018-07-02T06:27:18.750Z,1.40
2018-07-02T06:29:47.051Z,1.80
2018-07-02T06:32:15.102Z,1.20
2018-07-02T06:34:43.341Z,1.23
2018-07-02T06:37:11.638Z,1.30
2018-07-02T06:39:39.921Z,1.20
2018-07-02T06:42:09.205Z,1.47
2018-07-02T06:44:37.224Z,1.30
2018-07-02T06:47:05.806Z,1.60
2018-07-02T06:49:34.069Z,1.37
2018-07-02T06:52:02.395Z,1.40
2018-07-02T06:54:30.797Z,2.00
2018-07-02T06:56:59.243Z,1.40
2018-07-02T06:59:27.576Z,1.33
2018-07-02T07:01:55.880Z,1.43
2018-07-02T07:04:24.244Z,1.30
2018-07-02T07:06:53.277Z,1.40
2018-07-02T07:09:21.559Z,1.30
2018-07-02T07:11:49.797Z,1.40
2018-07-02T07:14:18.148Z,1.20
2018-07-02T07:16:46.486Z,1.40
2018-07-02T07:19:14.834Z,1.37
2018-07-02T07:21:43.134Z,1.20
2018-07-02T07:24:11.649Z,1.20
2018-07-02T07:26:39.996Z,1.70
2018-07-02T07:29:08.356Z,1.20
2018-07-02T07:31:36.706Z,1.40
2018-07-02T07:34:05.081Z,1.10
2018-07-02T07:36:33.393Z,1.23
2018-07-02T07:39:01.782Z,1.20
2018-07-02T07:41:30.105Z,1.30
2018-07-02T07:43:58.436Z,1.47
2018-07-02T07:46:26.814Z,1.43
2018-07-02T07:48:55.227Z,1.20
2018-07-02T07:51:23.488Z,1.20
2018-07-02T07:53:53.016Z,1.20
2018-07-02T07:56:21.307Z,1.20
2018-07-02T07:58:50.684Z,1.37
2018-07-02T08:01:19.083Z,1.30
2018-07-02T08:03:48.204Z,1.30
2018-07-02T08:06:19.373Z,1.20
2018-07-02T08:08:47.707Z,1.83
2018-07-02T08:11:16.724Z,1.27
2018-07-02T08:13:45.129Z,1.47
2018-07-02T08:16:14.870Z,1.40
2018-07-02T08:18:43.188Z,1.30
2018-07-02T08:21:11.813Z,1.20
2018-07-02T08:23:40.160Z,1.20
2018-07-02T08:26:09.157Z,1.20
2018-07-02T08:28:37.926Z,1.53
2018-07-02T08:31:06.283Z,1.30
2018-07-02T08:33:35.976Z,1.60
2018-07-02T08:36:04.328Z,1.50
2018-07-02T08:38:32.725Z,1.43
2018-07-02T08:41:00.757Z,1.43
2018-07-02T08:43:29.084Z,1.10
2018-07-02T08:45:57.796Z,1.33
2018-07-02T08:48:26.091Z,1.50
2018-07-02T08:50:54.333Z,1.40
2018-07-02T08:53:22.701Z,1.20
2018-07-02T08:55:51.795Z,1.60
2018-07-02T08:58:20.291Z,1.50
2018-07-02T09:00:48.573Z,1.20
2018-07-02T09:03:17.296Z,1.40
2018-07-02T09:05:45.657Z,1.30
2018-07-02T09:08:14.093Z,1.23
2018-07-02T09:10:42.395Z,1.20
2018-07-02T09:13:10.660Z,1.20
2018-07-02T09:15:39.484Z,1.30
2018-07-02T09:18:07.877Z,1.20
2018-07-02T09:20:36.245Z,1.63
2018-07-02T09:23:04.580Z,1.40
2018-07-02T09:25:33.024Z,1.33
2018-07-02T09:28:01.238Z,1.30
2018-07-02T09:30:30.112Z,1.40
2018-07-02T09:32:58.700Z,1.40
2018-07-02T09:35:26.950Z,1.20
2018-07-02T09:37:55.538Z,1.40
2018-07-02T09:40:24.041Z,1.20
2018-07-02T09:42:52.487Z,1.23
2018-07-02T09:45:21.080Z,1.10
2018-07-02T09:47:49.579Z,1.10
2018-07-02T09:50:19.466Z,1.37
2018-07-02T09:52:48.145Z,1.40
2018-07-02T09:55:16.772Z,1.20
2018-07-02T09:57:46.097Z,1.30
2018-07-02T10:00:14.468Z,1.40
2018-07-02T10:02:43.176Z,1.33
2018-07-02T10:05:11.573Z,1.50
2018-07-02T10:07:40.495Z,1.50
2018-07-02T10:10:08.966Z,1.30
2018-07-02T10:12:37.384Z,1.40
2018-07-02T10:15:06.269Z,1.57
2018-07-02T10:17:35.044Z,1.50
2018-07-02T10:20:03.613Z,1.07
2018-07-02T10:22:32.316Z,1.40
2018-07-02T10:25:01.213Z,1.40
2018-07-02T10:27:30.549Z,1.10
2018-07-02T10:29:59.549Z,1.40
2018-07-02T10:32:28.087Z,1.20
2018-07-02T10:34:56.389Z,1.20
2018-07-02T10:37:24.960Z,1.50
2018-07-02T10:39:54.362Z,1.20
2018-07-02T10:42:22.801Z,1.33
2018-07-02T10:44:51.806Z,1.30
2018-07-02T10:47:20.823Z,1.70
2018-07-02T10:49:49.144Z,1.70
2018-07-02T10:52:17.476Z,1.27
2018-07-02T10:54:45.776Z,1.50
2018-07-02T10:57:14.102Z,1.10
2018-07-02T10:59:43.447Z,1.27
2018-07-02T11:02:12.455Z,1.10
2018-07-02T11:04:40.801Z,1.50
2018-07-02T11:07:09.097Z,1.20
2018-07-02T11:09:37.431Z,1.40
2018-07-02T11:12:06.641Z,1.47
2018-07-02T11:14:34.948Z,1.30
2018-07-02T11:17:03.355Z,1.30
2018-07-02T11:19:33.387Z,1.20
2018-07-02T11:22:01.694Z,1.43
2018-07-02T11:24:30.337Z,1.47
2018-07-02T11:26:59.758Z,1.43
2018-07-02T11:29:28.394Z,1.30
2018-07-02T11:31:56.708Z,1.40
2018-07-02T11:34:24.972Z,1.50
2018-07-02T11:36:53.336Z,1.50
2018-07-02T11:39:21.390Z,1.47
2018-07-02T11:41:49.751Z,1.40
2018-07-02T11:44:18.101Z,1.30
2018-07-02T11:46:46.506Z,1.20
2018-07-02T11:49:15.470Z,1.10
2018-07-02T11:51:44.047Z,1.33
2018-07-02T11:54:13.194Z,1.10
2018-07-02T11:56:41.933Z,1.40
2018-07-02T11:59:10.409Z,1.27
2018-07-02T12:01:38.963Z,1.30
2018-07-02T12:04:07.508Z,1.30
2018-07-02T12:06:35.780Z,1.40
2018-07-02T12:09:06.363Z,1.30
2018-07-02T12:11:34.757Z,1.30
2018-07-02T12:14:03.468Z,1.30
2018-07-02T12:16:32.146Z,1.50
2018-07-02T12:19:00.691Z,1.47
2018-07-02T12:21:29.076Z,1.47
2018-07-02T12:23:57.396Z,1.03
2018-07-02T12:26:26.357Z,1.50
2018-07-02T12:28:54.657Z,1.67
2018-07-02T12:31:23.232Z,1.50
2018-07-02T12:33:51.733Z,1.57
2018-07-02T12:36:23.088Z,1.20
2018-07-02T12:38:51.463Z,1.27
2018-07-02T12:41:21.619Z,1.60
2018-07-02T12:43:52.537Z,1.20
2018-07-02T12:46:20.968Z,1.30
2018-07-02T12:48:49.344Z,1.63
2018-07-02T12:51:17.645Z,1.70
2018-07-02T12:53:45.784Z,1.37
2018-07-02T12:56:17.338Z,1.40
2018-07-02T12:58:45.722Z,1.43
2018-07-02T13:01:13.993Z,1.40
2018-07-02T13:03:42.276Z,1.40
2018-07-02T13:06:10.644Z,1.50
2018-07-02T13:08:38.906Z,1.60
2018-07-02T13:11:07.334Z,1.37
2018-07-02T13:13:35.745Z,1.60
2018-07-02T13:16:03.972Z,1.30
2018-07-02T13:18:32.353Z,1.33
2018-07-02T13:21:00.664Z,1.23
2018-07-02T13:23:30.151Z,1.73
2018-07-02T13:25:58.684Z,1.60
2018-07-02T13:28:27.488Z,1.37
2018-07-02T13:30:55.596Z,1.40
2018-07-02T13:33:23.885Z,1.47
2018-07-02T13:35:52.173Z,1.70
2018-07-02T13:38:20.534Z,1.70
2018-07-02T13:40:49.653Z,1.50
2018-07-02T13:43:17.996Z,1.50
2018-07-02T13:45:46.436Z,1.60
2018-07-02T13:48:14.816Z,1.40
2018-07-02T13:50:43.171Z,1.60
2018-07-02T13:53:11.497Z,1.70
2018-07-02T13:55:41.224Z,1.40
2018-07-02T13:58:09.481Z,1.23
2018-07-02T14:00:39.633Z,1.37
2018-07-02T14:03:08.019Z,1.80
2018-07-02T14:05:36.397Z,1.70
2018-07-02T14:08:04.913Z,1.73
2018-07-02T14:10:33.431Z,1.80
2018-07-02T14:13:01.902Z,1.40
2018-07-02T14:15:30.523Z,1.23
2018-07-02T14:18:00.074Z,1.77
2018-07-02T14:20:28.478Z,1.80
2018-07-02T14:22:56.934Z,1.50
2018-07-02T14:25:25.483Z,1.47
2018-07-02T14:27:53.916Z,1.90
2018-07-02T14:30:22.986Z,1.40
2018-07-02T14:32:51.389Z,1.90
2018-07-02T14:35:20.767Z,1.50
2018-07-02T14:37:49.261Z,1.60
2018-07-02T14:40:17.852Z,1.43
2018-07-02T14:42:46.856Z,1.90
2018-07-02T14:45:15.311Z,1.40
2018-07-02T14:47:43.461Z,1.77
2018-07-02T14:50:11.818Z,1.43
2018-07-02T14:52:40.925Z,1.80
2018-07-02T14:55:09.294Z,1.60
2018-07-02T14:57:37.653Z,1.83
2018-07-02T15:00:06.218Z,1.90
2018-07-02T15:02:34.974Z,1.83
2018-07-02T15:05:03.430Z,1.90
2018-07-02T15:07:31.840Z,1.60
2018-07-02T15:10:00.207Z,1.60
2018-07-02T15:12:28.732Z,1.50
2018-07-02T15:14:57.231Z,1.73
2018-07-02T15:17:25.549Z,1.80
2018-07-02T15:19:53.983Z,1.70
2018-07-02T15:22:22.272Z,1.70
2018-07-02T15:24:51.136Z,1.53
2018-07-02T15:27:19.508Z,1.70
2018-07-02T15:29:47.548Z,1.80
2018-07-02T15:32:15.914Z,1.70
2018-07-02T15:34:44.248Z,1.90
2018-07-02T15:37:12.853Z,1.70
2018-07-02T15:39:41.261Z,1.60
2018-07-02T15:42:09.609Z,1.80
2018-07-02T15:44:38.472Z,1.80
2018-07-02T15:47:06.783Z,1.83
2018-07-02T15:49:35.518Z,1.90
2018-07-02T15:52:04.175Z,2.30
2018-07-02T15:54:32.496Z,1.90
2018-07-02T15:57:00.931Z,1.80
2018-07-02T15:59:29.565Z,1.97
2018-07-02T16:01:58.660Z,1.80
2018-07-02T16:04:26.950Z,1.87
2018-07-02T16:06:55.267Z,1.70
2018-07-02T16:09:23.996Z,1.60
2018-07-02T16:11:52.586Z,1.90
2018-07-02T16:14:20.965Z,1.60
2018-07-02T16:16:49.276Z,1.67
2018-07-02T16:19:17.579Z,1.80
2018-07-02T16:21:45.987Z,1.90
2018-07-02T16:24:14.494Z,1.87
2018-07-02T16:26:42.828Z,2.00
2018-07-02T16:29:11.141Z,1.70
2018-07-02T16:31:39.480Z,1.87
2018-07-02T16:34:07.941Z,2.20
2018-07-02T16:36:36.235Z,1.47
2018-07-02T16:39:08.460Z,2.17
2018-07-02T16:41:37.262Z,1.70
2018-07-02T16:44:05.954Z,1.60
2018-07-02T16:46:35.169Z,2.00
2018-07-02T16:49:03.650Z,1.77
2018-07-02T16:51:33.319Z,1.87
2018-07-02T16:54:03.009Z,1.77
2018-07-02T16:56:31.344Z,1.70
2018-07-02T16:58:59.957Z,1.83
2018-07-02T17:01:28.374Z,1.63
2018-07-02T17:03:56.854Z,1.47
2018-07-02T17:06:25.375Z,1.73
2018-07-02T17:08:53.775Z,1.70
2018-07-02T17:11:22.959Z,1.53
2018-07-02T17:13:51.549Z,1.77
2018-07-02T17:16:21.402Z,1.90
2018-07-02T17:18:50.924Z,1.50
2018-07-02T17:21:22.189Z,1.57
2018-07-02T17:23:50.513Z,1.80
2018-07-02T17:26:18.816Z,1.77
2018-07-02T17:28:46.848Z,1.90
2018-07-02T17:31:15.148Z,1.70
2018-07-02T17:33:43.476Z,1.60
2018-07-02T17:36:11.900Z,1.83
2018-07-02T17:38:40.318Z,1.63
2018-07-02T17:41:08.654Z,1.90
2018-07-02T17:43:36.970Z,1.70
2018-07-02T17:46:05.304Z,1.63
2018-07-02T17:48:36.195Z,1.83
2018-07-02T17:51:04.484Z,1.70
2018-07-02T17:53:32.922Z,1.70
2018-07-02T17:56:01.193Z,1.57
2018-07-02T17:58:29.529Z,1.70
2018-07-02T18:00:57.832Z,1.70
2018-07-02T18:03:26.212Z,1.63
2018-07-02T18:05:54.525Z,1.40
2018-07-02T18:08:22.831Z,1.57
2018-07-02T18:10:51.152Z,1.47
2018-07-02T18:13:19.472Z,1.43
2018-07-02T18:15:47.860Z,1.50
2018-07-02T18:18:16.390Z,1.50
2018-07-02T18:20:44.788Z,1.70
2018-07-02T18:23:13.513Z,1.60
2018-07-02T18:25:41.876Z,1.70
2018-07-02T18:28:10.273Z,1.50
2018-07-02T18:30:38.712Z,1.60
2018-07-02T18:33:07.211Z,1.57
2018-07-02T18:35:35.502Z,1.40
2018-07-02T18:38:03.874Z,1.67
2018-07-02T18:40:32.169Z,1.60
2018-07-02T18:43:00.661Z,1.70
2018-07-02T18:45:29.728Z,1.80
2018-07-02T18:47:57.981Z,1.90
2018-07-02T18:50:26.400Z,1.60
2018-07-02T18:52:54.722Z,1.70
2018-07-02T18:55:23.131Z,1.70
2018-07-02T18:57:51.426Z,1.90
2018-07-02T19:00:19.880Z,1.60
2018-07-02T19:02:48.275Z,1.50
2018-07-02T19:05:16.597Z,1.83
2018-07-02T19:07:44.877Z,2.03
2018-07-02T19:10:14.391Z,1.70
2018-07-02T19:12:42.915Z,1.80
2018-07-02T19:15:11.257Z,1.63
2018-07-02T19:17:39.580Z,1.47
2018-07-02T19:20:08.278Z,1.73
2018-07-02T19:22:36.572Z,1.80
2018-07-02T19:25:05.301Z,1.90
2018-07-02T19:27:33.643Z,1.57
2018-07-02T19:30:02.048Z,1.70
2018-07-02T19:32:30.335Z,1.70
2018-07-02T19:34:58.668Z,1.53
2018-07-02T19:37:27.096Z,1.70
2018-07-02T19:39:56.189Z,1.40
2018-07-02T19:42:24.552Z,1.60
2018-07-02T19:44:52.892Z,1.70
2018-07-02T19:47:21.265Z,1.70
2018-07-02T19:49:50.401Z,1.53
2018-07-02T19:52:18.725Z,1.90
2018-07-02T19:54:47.066Z,1.40
2018-07-02T19:57:15.375Z,1.80
2018-07-02T19:59:43.730Z,1.87
2018-07-02T20:02:12.145Z,1.40
2018-07-02T20:04:40.433Z,1.60
2018-07-02T20:07:08.820Z,1.60
2018-07-02T20:09:38.000Z,1.47
2018-07-02T20:12:06.438Z,1.50
2018-07-02T20:14:34.714Z,1.67
2018-07-02T20:17:03.092Z,1.70
2018-07-02T20:19:31.392Z,1.50
2018-07-02T20:21:59.726Z,1.67
2018-07-02T20:24:28.026Z,1.40
2018-07-02T20:26:56.380Z,1.40
2018-07-02T20:29:24.630Z,1.60
2018-07-02T20:31:52.930Z,1.50
2018-07-02T20:34:21.249Z,1.47
2018-07-02T20:36:49.609Z,1.40
2018-07-02T20:39:17.920Z,1.50
2018-07-02T20:41:46.202Z,1.50
2018-07-02T20:44:14.588Z,1.43
2018-07-02T20:46:42.849Z,1.60
2018-07-02T20:49:11.864Z,1.43
2018-07-02T20:51:40.169Z,1.40
2018-07-02T20:54:09.388Z,1.70
2018-07-02T20:56:37.809Z,1.43
2018-07-02T20:59:06.122Z,1.40
2018-07-02T21:01:34.805Z,1.57
2018-07-02T21:04:03.396Z,1.50
2018-07-02T21:06:31.749Z,1.50
2018-07-02T21:09:00.129Z,1.30
2018-07-02T21:11:28.388Z,1.40
2018-07-02T21:13:56.448Z,1.30
2018-07-02T21:16:24.773Z,1.30
2018-07-02T21:18:53.103Z,1.33
2018-07-02T21:21:21.691Z,1.40
2018-07-02T21:23:50.500Z,1.50
2018-07-02T21:26:19.067Z,1.40
2018-07-02T21:28:47.374Z,1.30
2018-07-02T21:31:15.635Z,1.40
2018-07-02T21:33:43.913Z,1.30
2018-07-02T21:36:12.219Z,1.30
2018-07-02T21:38:40.464Z,1.30
2018-07-02T21:41:08.786Z,1.60
2018-07-02T21:43:37.147Z,1.50
2018-07-02T21:46:05.449Z,1.20
2018-07-02T21:48:33.937Z,1.10
2018-07-02T21:51:02.258Z,1.40
2018-07-02T21:53:30.540Z,1.27
2018-07-02T21:55:59.021Z,1.57
2018-07-02T21:58:28.318Z,1.10
2018-07-02T22:00:56.620Z,1.23
2018-07-02T22:03:24.944Z,1.30
2018-07-02T22:05:53.923Z,1.40
2018-07-02T22:08:22.330Z,1.40
2018-07-02T22:10:50.676Z,1.27
2018-07-02T22:13:19.125Z,1.40
2018-07-02T22:15:47.536Z,1.30
2018-07-02T22:18:15.849Z,1.40
2018-07-02T22:20:44.277Z,1.40
2018-07-02T22:23:12.564Z,1.40
2018-07-02T22:25:40.844Z,1.10
2018-07-02T22:28:09.145Z,1.30
2018-07-02T22:30:37.425Z,1.50
2018-07-02T22:33:05.789Z,1.10
2018-07-02T22:35:34.334Z,1.40
2018-07-02T22:38:02.593Z,1.57
2018-07-02T22:40:30.899Z,1.17
2018-07-02T22:42:59.224Z,1.20
2018-07-02T22:45:27.577Z,1.40
2018-07-02T22:47:55.900Z,1.20
2018-07-02T22:50:24.236Z,1.10
2018-07-02T22:52:52.713Z,1.20
2018-07-02T22:55:20.973Z,1.00
2018-07-02T22:57:49.272Z,1.10
2018-07-02T23:00:17.520Z,1.03
2018-07-02T23:02:45.967Z,1.30
2018-07-02T23:05:14.236Z,1.30
2018-07-02T23:07:42.545Z,1.10
2018-07-02T23:10:10.844Z,1.20
2018-07-02T23:12:39.120Z,1.20
2018-07-02T23:15:07.441Z,1.20
2018-07-02T23:17:35.689Z,1.20
2018-07-02T23:20:03.994Z,1.30
2018-07-02T23:23:04.994Z,1.13
2018-07-02T23:25:33.268Z,1.40
2018-07-02T23:28:02.529Z,1.20
2018-07-02T23:30:31.852Z,1.17
2018-07-02T23:33:00.366Z,1.20
2018-07-02T23:35:28.703Z,1.47
2018-07-02T23:37:56.872Z,1.40
2018-07-02T23:40:25.945Z,1.20
2018-07-02T23:42:54.997Z,1.30
2018-07-02T23:45:24.217Z,1.20
2018-07-02T23:47:52.496Z,1.10
2018-07-02T23:50:20.786Z,1.30
2018-07-02T23:52:49.081Z,1.40
2018-07-02T23:55:17.407Z,1.27
2018-07-02T23:57:45.652Z,1.10
